Spelter City, Oklahoma
Current Conditions -  °F | °C
As of 7:15 AM on Thursday 18 Dec 2014 (Local Time) from KOKM Reporting Station
Haze Haze  
Wind Chill: -2°   Ceiling: 200
Heat Index:   Visibility: 4mi
Dew Point:   Wind: 13mph
Humidity: 99%   Direction: 100°E
Pressure: 30.17"   Gusts: NA
Location:  35.4729°N, 95.9709°W
Report Text: KOKM 181315Z AUTO 10011KT 4SM BR OVC002 02/02 A3017 RMK AO2 T00230022
Loading
Personal Weather Stations






























Interactive Weather Map New forecast layout! Learn more

10-Day Weather Forecast

Advertisements
Track Severe Weather on mobile